| Date | Time | Temp. (oF) | Dew Point (oF) | Rel. Hum. (%) | Press. (in.) | Wind Dir. (deg.) | Wind Speed (mph) | Hourly Rainfall (i n.) |
|
|---|---|---|---|---|---|---|---|---|---|
| 1 | 06/27 | 24:00 | 76 | 65 | 71 | 30.16 | 140 | 0 | 0.00 |
| 2 | 06/26 | 23:00 | 77 | 66 | 70 | 30.14 | 130 | 1 | 0.00 |
| 3 | 06/26 | 22:00 | 79 | 67 | 67 | 30.11 | 130 | 0 | 0.00 |
| 4 | 06/26 | 21:00 | 81 | 68 | 67 | 30.06 | 130 | 0 | 0.00 |
| 5 | 06/26 | 20:00 | 84 | 70 | 64 | 30.06 | 130 | 1 | 0.00 |
| 6 | 06/26 | 19:00 | 86 | 69 | 59 | 30.07 | 180 | 7 | 0.00 |
| 7 | 06/26 | 18:00 | 88 | 70 | 56 | 30.09 | 150 | 4 | 0.00 |
| 8 | 06/26 | 17:00 | 89 | 69 | 53 | 30.10 | 120 | 4 | 0.00 |
| 9 | 06/26 | 16:00 | 89 | 68 | 51 | 30.11 | 150 | 2 | 0.00 |
| 10 | 06/26 | 15:00 | 89 | 67 | 49 | 30.09 | 150 | 2 | 0.00 |
| 11 | 06/26 | 14:00 | 90 | 69 | 52 | 30.10 | 290 | 4 | 0.00 |
| 12 | 06/26 | 13:00 | 90 | 68 | 50 | 30.14 | 150 | 2 | 0.00 |
| 13 | 06/26 | 12:00 | 89 | 70 | 55 | 30.22 | 270 | 4 | 0.00 |
| 14 | 06/26 | 11:00 | 85 | 69 | 61 | 30.21 | 10 | 1 | 0.00 |
| 15 | 06/26 | 10:00 | 77 | 69 | 77 | 30.20 | 260 | 6 | 0.00 |
| 16 | 06/26 | 09:00 | 72 | 66 | 83 | 30.19 | 150 | 0 | 0.00 |
| 17 | 06/26 | 08:00 | 69 | 65 | 88 | 30.19 | 150 | 0 | 0.00 |
| 18 | 06/26 | 07:00 | 67 | 63 | 88 | 30.18 | 150 | 0 | 0.00 |
| 19 | 06/26 | 06:00 | 67 | 62 | 86 | 30.17 | 150 | 0 | 0.00 |
| 20 | 06/26 | 05:00 | 68 | 62 | 83 | 30.17 | 150 | 0 | 0.00 |
| 21 | 06/26 | 04:00 | 69 | 63 | 83 | 30.16 | 150 | 0 | 0.00 |
| 22 | 06/26 | 03:00 | 70 | 63 | 80 | 30.15 | 150 | 0 | 0.00 |
| 23 | 06/26 | 02:00 | 70 | 63 | 79 | 30.14 | 150 | 1 | 0.00 |
| 24 | 06/26 | 01:00 | 71 | 63 | 78 | 30.15 | 150 | 1 | 0.00 |